sensor_id;sensor_type;location;lat;lon;timestamp;temperature;humidity
13458;DHT22;6801;53.018;11.560;2022-11-20T00:01:16;2.50;79.80
13458;DHT22;6801;53.018;11.560;2022-11-20T00:03:44;2.50;79.80
13458;DHT22;6801;53.018;11.560;2022-11-20T00:06:14;2.50;79.70
13458;DHT22;6801;53.018;11.560;2022-11-20T00:08:41;2.50;79.70
13458;DHT22;6801;53.018;11.560;2022-11-20T00:11:09;2.50;79.70
13458;DHT22;6801;53.018;11.560;2022-11-20T00:13:37;2.50;79.70
13458;DHT22;6801;53.018;11.560;2022-11-20T00:16:06;2.40;79.80
13458;DHT22;6801;53.018;11.560;2022-11-20T00:18:34;2.40;79.80
13458;DHT22;6801;53.018;11.560;2022-11-20T00:21:01;2.40;79.80
13458;DHT22;6801;53.018;11.560;2022-11-20T00:23:30;2.40;79.80
13458;DHT22;6801;53.018;11.560;2022-11-20T00:26:01;2.40;79.80
13458;DHT22;6801;53.018;11.560;2022-11-20T00:28:30;2.40;79.80
13458;DHT22;6801;53.018;11.560;2022-11-20T00:31:01;2.50;79.80
13458;DHT22;6801;53.018;11.560;2022-11-20T00:33:30;2.50;79.70
13458;DHT22;6801;53.018;11.560;2022-11-20T00:36:00;2.50;79.70
13458;DHT22;6801;53.018;11.560;2022-11-20T00:38:29;2.40;79.70
13458;DHT22;6801;53.018;11.560;2022-11-20T00:40:57;2.40;79.70
13458;DHT22;6801;53.018;11.560;2022-11-20T00:43:25;2.40;79.70
13458;DHT22;6801;53.018;11.560;2022-11-20T00:45:57;2.40;79.70
13458;DHT22;6801;53.018;11.560;2022-11-20T00:48:24;2.50;79.70
13458;DHT22;6801;53.018;11.560;2022-11-20T00:50:51;2.40;79.70
13458;DHT22;6801;53.018;11.560;2022-11-20T00:53:19;2.40;79.70
13458;DHT22;6801;53.018;11.560;2022-11-20T00:55:54;2.40;79.80
13458;DHT22;6801;53.018;11.560;2022-11-20T00:58:21;2.40;79.70
13458;DHT22;6801;53.018;11.560;2022-11-20T01:00:49;2.40;79.70
13458;DHT22;6801;53.018;11.560;2022-11-20T01:03:16;2.40;79.80
13458;DHT22;6801;53.018;11.560;2022-11-20T01:05:43;2.40;79.70
13458;DHT22;6801;53.018;11.560;2022-11-20T01:08:10;2.40;79.70
13458;DHT22;6801;53.018;11.560;2022-11-20T01:10:37;2.40;79.80
13458;DHT22;6801;53.018;11.560;2022-11-20T01:13:06;2.30;79.80
13458;DHT22;6801;53.018;11.560;2022-11-20T01:15:50;2.30;79.80
13458;DHT22;6801;53.018;11.560;2022-11-20T01:18:17;2.30;79.90
13458;DHT22;6801;53.018;11.560;2022-11-20T01:20:44;2.30;79.90
13458;DHT22;6801;53.018;11.560;2022-11-20T01:23:11;2.30;79.90
13458;DHT22;6801;53.018;11.560;2022-11-20T01:25:38;2.30;79.90
13458;DHT22;6801;53.018;11.560;2022-11-20T01:28:06;2.30;79.90
13458;DHT22;6801;53.018;11.560;2022-11-20T01:30:33;2.30;79.80
13458;DHT22;6801;53.018;11.560;2022-11-20T01:33:01;2.30;79.80
13458;DHT22;6801;53.018;11.560;2022-11-20T01:35:28;2.30;79.80
13458;DHT22;6801;53.018;11.560;2022-11-20T01:37:54;2.30;79.80
13458;DHT22;6801;53.018;11.560;2022-11-20T01:40:22;2.30;79.80
13458;DHT22;6801;53.018;11.560;2022-11-20T01:42:55;2.30;79.80
13458;DHT22;6801;53.018;11.560;2022-11-20T01:46:00;2.30;79.70
13458;DHT22;6801;53.018;11.560;2022-11-20T01:48:33;2.30;79.70
13458;DHT22;6801;53.018;11.560;2022-11-20T01:51:00;2.20;79.70
13458;DHT22;6801;53.018;11.560;2022-11-20T01:53:32;2.20;79.70
13458;DHT22;6801;53.018;11.560;2022-11-20T01:56:01;2.20;79.80
13458;DHT22;6801;53.018;11.560;2022-11-20T01:58:33;2.20;79.80
13458;DHT22;6801;53.018;11.560;2022-11-20T02:01:04;2.20;79.80
13458;DHT22;6801;53.018;11.560;2022-11-20T02:03:31;2.20;79.80
13458;DHT22;6801;53.018;11.560;2022-11-20T02:06:05;2.20;79.80
13458;DHT22;6801;53.018;11.560;2022-11-20T02:08:35;2.20;79.80
13458;DHT22;6801;53.018;11.560;2022-11-20T02:11:03;2.20;79.80
13458;DHT22;6801;53.018;11.560;2022-11-20T02:13:30;2.20;79.80
13458;DHT22;6801;53.018;11.560;2022-11-20T02:16:17;2.10;79.80
13458;DHT22;6801;53.018;11.560;2022-11-20T02:18:47;2.10;79.70
13458;DHT22;6801;53.018;11.560;2022-11-20T02:21:23;2.10;79.70
13458;DHT22;6801;53.018;11.560;2022-11-20T02:24:09;2.10;79.70
13458;DHT22;6801;53.018;11.560;2022-11-20T02:26:45;2.00;79.70
13458;DHT22;6801;53.018;11.560;2022-11-20T02:29:15;2.00;79.70
13458;DHT22;6801;53.018;11.560;2022-11-20T02:31:44;2.00;79.80
13458;DHT22;6801;53.018;11.560;2022-11-20T02:34:11;1.90;79.90
13458;DHT22;6801;53.018;11.560;2022-11-20T02:36:39;1.90;79.90
13458;DHT22;6801;53.018;11.560;2022-11-20T02:39:10;1.90;79.90
13458;DHT22;6801;53.018;11.560;2022-11-20T02:41:38;1.90;80.00
13458;DHT22;6801;53.018;11.560;2022-11-20T02:44:05;1.90;79.90
13458;DHT22;6801;53.018;11.560;2022-11-20T02:46:33;1.90;80.00
13458;DHT22;6801;53.018;11.560;2022-11-20T02:49:01;1.80;80.00
13458;DHT22;6801;53.018;11.560;2022-11-20T02:51:28;1.80;80.00
13458;DHT22;6801;53.018;11.560;2022-11-20T02:53:56;1.80;79.90
13458;DHT22;6801;53.018;11.560;2022-11-20T02:56:24;1.80;80.00
13458;DHT22;6801;53.018;11.560;2022-11-20T02:58:51;1.80;80.10
13458;DHT22;6801;53.018;11.560;2022-11-20T03:01:18;1.70;80.10
13458;DHT22;6801;53.018;11.560;2022-11-20T03:03:45;1.80;80.10
13458;DHT22;6801;53.018;11.560;2022-11-20T03:06:14;1.80;80.10
13458;DHT22;6801;53.018;11.560;2022-11-20T03:08:42;1.80;80.10
13458;DHT22;6801;53.018;11.560;2022-11-20T03:11:09;1.70;80.00
13458;DHT22;6801;53.018;11.560;2022-11-20T03:13:38;1.70;80.00
13458;DHT22;6801;53.018;11.560;2022-11-20T03:16:10;1.70;80.00
13458;DHT22;6801;53.018;11.560;2022-11-20T03:18:37;1.70;80.00
13458;DHT22;6801;53.018;11.560;2022-11-20T03:21:05;1.80;80.00
13458;DHT22;6801;53.018;11.560;2022-11-20T03:23:32;1.70;79.90
13458;DHT22;6801;53.018;11.560;2022-11-20T03:26:11;1.70;79.90
13458;DHT22;6801;53.018;11.560;2022-11-20T03:28:40;1.70;79.80
13458;DHT22;6801;53.018;11.560;2022-11-20T03:31:11;1.70;79.80
13458;DHT22;6801;53.018;11.560;2022-11-20T03:33:39;1.70;79.80
13458;DHT22;6801;53.018;11.560;2022-11-20T03:36:09;1.60;79.90
13458;DHT22;6801;53.018;11.560;2022-11-20T03:38:37;1.60;79.90
13458;DHT22;6801;53.018;11.560;2022-11-20T03:41:05;1.60;79.90
13458;DHT22;6801;53.018;11.560;2022-11-20T03:43:33;1.60;79.90
13458;DHT22;6801;53.018;11.560;2022-11-20T03:46:02;1.60;79.90
13458;DHT22;6801;53.018;11.560;2022-11-20T03:48:30;1.60;79.80
13458;DHT22;6801;53.018;11.560;2022-11-20T03:51:07;1.60;79.80
13458;DHT22;6801;53.018;11.560;2022-11-20T03:53:35;1.60;79.90
13458;DHT22;6801;53.018;11.560;2022-11-20T03:56:02;1.60;79.80
13458;DHT22;6801;53.018;11.560;2022-11-20T03:58:29;1.60;79.80
13458;DHT22;6801;53.018;11.560;2022-11-20T04:00:56;1.60;79.70
13458;DHT22;6801;53.018;11.560;2022-11-20T04:03:25;1.60;79.70
13458;DHT22;6801;53.018;11.560;2022-11-20T04:05:52;1.60;79.70
13458;DHT22;6801;53.018;11.560;2022-11-20T04:08:19;1.60;79.70
13458;DHT22;6801;53.018;11.560;2022-11-20T04:10:46;1.60;79.60
13458;DHT22;6801;53.018;11.560;2022-11-20T04:13:13;1.60;79.70
13458;DHT22;6801;53.018;11.560;2022-11-20T04:15:40;1.60;79.70
13458;DHT22;6801;53.018;11.560;2022-11-20T04:18:07;1.60;79.70
13458;DHT22;6801;53.018;11.560;2022-11-20T04:20:35;1.60;79.70
13458;DHT22;6801;53.018;11.560;2022-11-20T04:23:02;1.60;79.70
13458;DHT22;6801;53.018;11.560;2022-11-20T04:25:29;1.60;79.70
13458;DHT22;6801;53.018;11.560;2022-11-20T04:27:56;1.60;79.70
13458;DHT22;6801;53.018;11.560;2022-11-20T04:30:23;1.60;79.80
13458;DHT22;6801;53.018;11.560;2022-11-20T04:32:51;1.60;79.70
13458;DHT22;6801;53.018;11.560;2022-11-20T04:35:18;1.60;79.80
13458;DHT22;6801;53.018;11.560;2022-11-20T04:37:47;1.60;79.80
13458;DHT22;6801;53.018;11.560;2022-11-20T04:40:14;1.60;79.70
13458;DHT22;6801;53.018;11.560;2022-11-20T04:42:41;1.60;79.80
13458;DHT22;6801;53.018;11.560;2022-11-20T04:45:08;1.60;79.80
13458;DHT22;6801;53.018;11.560;2022-11-20T04:47:35;1.60;79.80
13458;DHT22;6801;53.018;11.560;2022-11-20T04:50:03;1.60;79.70
13458;DHT22;6801;53.018;11.560;2022-11-20T04:52:30;1.60;79.70
13458;DHT22;6801;53.018;11.560;2022-11-20T04:54:58;1.60;79.80
13458;DHT22;6801;53.018;11.560;2022-11-20T04:57:25;1.60;79.80
13458;DHT22;6801;53.018;11.560;2022-11-20T04:59:52;1.60;79.80
13458;DHT22;6801;53.018;11.560;2022-11-20T05:02:19;1.60;79.70
13458;DHT22;6801;53.018;11.560;2022-11-20T05:04:46;1.60;79.70
13458;DHT22;6801;53.018;11.560;2022-11-20T05:07:13;1.60;79.70
13458;DHT22;6801;53.018;11.560;2022-11-20T05:09:40;1.60;79.70
13458;DHT22;6801;53.018;11.560;2022-11-20T05:12:09;1.60;79.70
13458;DHT22;6801;53.018;11.560;2022-11-20T05:14:36;1.60;79.70
13458;DHT22;6801;53.018;11.560;2022-11-20T05:17:03;1.60;79.70
13458;DHT22;6801;53.018;11.560;2022-11-20T05:19:30;1.60;79.70
13458;DHT22;6801;53.018;11.560;2022-11-20T05:21:57;1.60;79.80
13458;DHT22;6801;53.018;11.560;2022-11-20T05:24:24;1.60;79.80
13458;DHT22;6801;53.018;11.560;2022-11-20T05:26:51;1.60;79.70
13458;DHT22;6801;53.018;11.560;2022-11-20T05:29:20;1.60;79.70
13458;DHT22;6801;53.018;11.560;2022-11-20T05:31:47;1.60;79.70
13458;DHT22;6801;53.018;11.560;2022-11-20T05:34:14;1.60;79.70
13458;DHT22;6801;53.018;11.560;2022-11-20T05:36:41;1.60;79.70
13458;DHT22;6801;53.018;11.560;2022-11-20T05:39:08;1.60;79.70
13458;DHT22;6801;53.018;11.560;2022-11-20T05:41:35;1.60;79.60
13458;DHT22;6801;53.018;11.560;2022-11-20T05:44:02;1.60;79.70
13458;DHT22;6801;53.018;11.560;2022-11-20T05:46:30;1.60;79.60
13458;DHT22;6801;53.018;11.560;2022-11-20T05:48:58;1.60;79.70
13458;DHT22;6801;53.018;11.560;2022-11-20T05:51:25;1.60;79.70
13458;DHT22;6801;53.018;11.560;2022-11-20T05:53:52;1.60;79.70
13458;DHT22;6801;53.018;11.560;2022-11-20T05:56:20;1.60;79.70
13458;DHT22;6801;53.018;11.560;2022-11-20T05:58:48;1.60;79.70
13458;DHT22;6801;53.018;11.560;2022-11-20T06:01:17;1.60;79.70
13458;DHT22;6801;53.018;11.560;2022-11-20T06:03:46;1.60;79.60
13458;DHT22;6801;53.018;11.560;2022-11-20T06:06:16;1.60;79.60
13458;DHT22;6801;53.018;11.560;2022-11-20T06:08:43;1.60;79.60
13458;DHT22;6801;53.018;11.560;2022-11-20T06:11:12;1.60;79.60
13458;DHT22;6801;53.018;11.560;2022-11-20T06:13:40;1.60;79.60
13458;DHT22;6801;53.018;11.560;2022-11-20T06:16:07;1.60;79.60
13458;DHT22;6801;53.018;11.560;2022-11-20T06:18:34;1.60;79.70
13458;DHT22;6801;53.018;11.560;2022-11-20T06:21:04;1.60;79.70
13458;DHT22;6801;53.018;11.560;2022-11-20T06:23:32;1.60;79.70
13458;DHT22;6801;53.018;11.560;2022-11-20T06:26:02;1.60;79.80
13458;DHT22;6801;53.018;11.560;2022-11-20T06:28:29;1.60;79.70
13458;DHT22;6801;53.018;11.560;2022-11-20T06:30:56;1.60;79.70
13458;DHT22;6801;53.018;11.560;2022-11-20T06:33:24;1.60;79.70
13458;DHT22;6801;53.018;11.560;2022-11-20T06:35:51;1.60;79.70
13458;DHT22;6801;53.018;11.560;2022-11-20T06:38:19;1.60;79.70
13458;DHT22;6801;53.018;11.560;2022-11-20T06:40:46;1.60;79.70
13458;DHT22;6801;53.018;11.560;2022-11-20T06:43:13;1.60;79.70
13458;DHT22;6801;53.018;11.560;2022-11-20T06:45:40;1.60;79.70
13458;DHT22;6801;53.018;11.560;2022-11-20T06:48:08;1.60;79.70
13458;DHT22;6801;53.018;11.560;2022-11-20T06:50:36;1.60;79.70
13458;DHT22;6801;53.018;11.560;2022-11-20T06:53:04;1.60;79.70
13458;DHT22;6801;53.018;11.560;2022-11-20T06:55:32;1.70;79.70
13458;DHT22;6801;53.018;11.560;2022-11-20T06:57:59;1.60;79.70
13458;DHT22;6801;53.018;11.560;2022-11-20T07:00:26;1.70;79.70
13458;DHT22;6801;53.018;11.560;2022-11-20T07:02:53;1.70;79.80
13458;DHT22;6801;53.018;11.560;2022-11-20T07:05:20;1.70;79.70
13458;DHT22;6801;53.018;11.560;2022-11-20T07:07:47;1.70;79.70
13458;DHT22;6801;53.018;11.560;2022-11-20T07:10:14;1.70;79.70
13458;DHT22;6801;53.018;11.560;2022-11-20T07:12:49;1.70;79.70
13458;DHT22;6801;53.018;11.560;2022-11-20T07:15:16;1.70;79.70
13458;DHT22;6801;53.018;11.560;2022-11-20T07:17:44;1.70;79.80
13458;DHT22;6801;53.018;11.560;2022-11-20T07:20:11;1.70;79.70
13458;DHT22;6801;53.018;11.560;2022-11-20T07:22:38;1.70;79.70
13458;DHT22;6801;53.018;11.560;2022-11-20T07:25:06;1.70;79.70
13458;DHT22;6801;53.018;11.560;2022-11-20T07:27:34;1.70;79.80
13458;DHT22;6801;53.018;11.560;2022-11-20T07:30:03;1.70;79.80
13458;DHT22;6801;53.018;11.560;2022-11-20T07:32:30;1.70;79.90
13458;DHT22;6801;53.018;11.560;2022-11-20T07:34:58;1.60;79.90
13458;DHT22;6801;53.018;11.560;2022-11-20T07:37:26;1.60;79.90
13458;DHT22;6801;53.018;11.560;2022-11-20T07:39:53;1.70;79.90
13458;DHT22;6801;53.018;11.560;2022-11-20T07:42:20;1.70;79.80
13458;DHT22;6801;53.018;11.560;2022-11-20T07:44:50;1.70;79.80
13458;DHT22;6801;53.018;11.560;2022-11-20T07:47:18;1.70;79.90
13458;DHT22;6801;53.018;11.560;2022-11-20T07:49:45;1.70;79.90
13458;DHT22;6801;53.018;11.560;2022-11-20T07:52:12;1.70;79.90
13458;DHT22;6801;53.018;11.560;2022-11-20T07:54:39;1.80;79.90
13458;DHT22;6801;53.018;11.560;2022-11-20T07:57:07;1.80;79.90
13458;DHT22;6801;53.018;11.560;2022-11-20T07:59:33;1.70;80.00
13458;DHT22;6801;53.018;11.560;2022-11-20T08:02:00;1.80;80.10
13458;DHT22;6801;53.018;11.560;2022-11-20T08:04:29;1.70;80.10
13458;DHT22;6801;53.018;11.560;2022-11-20T08:06:56;1.70;80.20
13458;DHT22;6801;53.018;11.560;2022-11-20T08:09:23;1.70;80.20
13458;DHT22;6801;53.018;11.560;2022-11-20T08:11:50;1.70;80.20
13458;DHT22;6801;53.018;11.560;2022-11-20T08:14:35;1.80;80.20
13458;DHT22;6801;53.018;11.560;2022-11-20T08:17:02;1.80;80.20
13458;DHT22;6801;53.018;11.560;2022-11-20T08:19:30;1.80;80.20
13458;DHT22;6801;53.018;11.560;2022-11-20T08:21:57;1.80;80.10
13458;DHT22;6801;53.018;11.560;2022-11-20T08:24:25;1.90;80.10
13458;DHT22;6801;53.018;11.560;2022-11-20T08:26:52;1.90;80.00
13458;DHT22;6801;53.018;11.560;2022-11-20T08:29:20;1.90;79.90
13458;DHT22;6801;53.018;11.560;2022-11-20T08:31:47;1.90;79.90
13458;DHT22;6801;53.018;11.560;2022-11-20T08:34:14;1.90;79.90
13458;DHT22;6801;53.018;11.560;2022-11-20T08:36:43;1.90;79.90
13458;DHT22;6801;53.018;11.560;2022-11-20T08:39:13;1.90;80.00
13458;DHT22;6801;53.018;11.560;2022-11-20T08:41:40;2.00;80.00
13458;DHT22;6801;53.018;11.560;2022-11-20T08:44:08;2.00;79.90
13458;DHT22;6801;53.018;11.560;2022-11-20T08:46:36;2.00;79.90
13458;DHT22;6801;53.018;11.560;2022-11-20T08:49:04;2.00;79.90
13458;DHT22;6801;53.018;11.560;2022-11-20T08:51:32;2.00;79.80
13458;DHT22;6801;53.018;11.560;2022-11-20T08:54:01;2.00;79.90
13458;DHT22;6801;53.018;11.560;2022-11-20T08:56:28;2.00;79.90
13458;DHT22;6801;53.018;11.560;2022-11-20T08:58:55;2.00;79.90
13458;DHT22;6801;53.018;11.560;2022-11-20T09:01:25;2.00;79.90
13458;DHT22;6801;53.018;11.560;2022-11-20T09:03:55;2.00;80.00
13458;DHT22;6801;53.018;11.560;2022-11-20T09:06:22;2.00;80.00
13458;DHT22;6801;53.018;11.560;2022-11-20T09:08:51;2.00;79.90
13458;DHT22;6801;53.018;11.560;2022-11-20T09:11:20;2.00;80.00
13458;DHT22;6801;53.018;11.560;2022-11-20T09:13:48;2.10;79.90
13458;DHT22;6801;53.018;11.560;2022-11-20T09:16:15;2.10;80.00
13458;DHT22;6801;53.018;11.560;2022-11-20T09:18:43;2.10;80.00
13458;DHT22;6801;53.018;11.560;2022-11-20T09:21:12;2.10;80.00
13458;DHT22;6801;53.018;11.560;2022-11-20T09:23:40;2.10;79.90
13458;DHT22;6801;53.018;11.560;2022-11-20T09:26:10;2.10;80.00
13458;DHT22;6801;53.018;11.560;2022-11-20T09:28:39;2.10;79.90
13458;DHT22;6801;53.018;11.560;2022-11-20T09:31:07;2.10;79.90
13458;DHT22;6801;53.018;11.560;2022-11-20T09:33:35;2.20;80.00
13458;DHT22;6801;53.018;11.560;2022-11-20T09:36:03;2.10;80.00
13458;DHT22;6801;53.018;11.560;2022-11-20T09:38:30;2.20;80.00
13458;DHT22;6801;53.018;11.560;2022-11-20T09:41:03;2.20;80.00
13458;DHT22;6801;53.018;11.560;2022-11-20T09:43:41;2.20;80.00
13458;DHT22;6801;53.018;11.560;2022-11-20T09:46:20;2.20;80.00
13458;DHT22;6801;53.018;11.560;2022-11-20T09:49:03;2.10;80.00
13458;DHT22;6801;53.018;11.560;2022-11-20T09:51:40;2.20;80.00
13458;DHT22;6801;53.018;11.560;2022-11-20T09:54:16;2.20;80.00
13458;DHT22;6801;53.018;11.560;2022-11-20T09:56:46;2.20;80.00
13458;DHT22;6801;53.018;11.560;2022-11-20T09:59:29;2.20;80.00
13458;DHT22;6801;53.018;11.560;2022-11-20T10:01:59;2.20;80.10
13458;DHT22;6801;53.018;11.560;2022-11-20T10:04:30;2.30;80.00
13458;DHT22;6801;53.018;11.560;2022-11-20T10:07:05;2.30;80.00
13458;DHT22;6801;53.018;11.560;2022-11-20T10:09:35;2.30;80.10
13458;DHT22;6801;53.018;11.560;2022-11-20T10:12:11;2.30;80.10
13458;DHT22;6801;53.018;11.560;2022-11-20T10:14:59;2.20;80.10
13458;DHT22;6801;53.018;11.560;2022-11-20T10:17:41;2.20;80.20
13458;DHT22;6801;53.018;11.560;2022-11-20T10:20:19;2.30;80.20
13458;DHT22;6801;53.018;11.560;2022-11-20T10:23:05;2.30;80.20
13458;DHT22;6801;53.018;11.560;2022-11-20T10:25:39;2.30;80.20
13458;DHT22;6801;53.018;11.560;2022-11-20T10:28:26;2.30;80.20
13458;DHT22;6801;53.018;11.560;2022-11-20T10:31:00;2.30;80.20
13458;DHT22;6801;53.018;11.560;2022-11-20T10:33:32;2.30;80.10
13458;DHT22;6801;53.018;11.560;2022-11-20T10:36:06;2.30;80.10
13458;DHT22;6801;53.018;11.560;2022-11-20T10:38:37;2.40;80.10
13458;DHT22;6801;53.018;11.560;2022-11-20T10:41:06;2.30;80.10
13458;DHT22;6801;53.018;11.560;2022-11-20T10:43:58;2.40;80.10
13458;DHT22;6801;53.018;11.560;2022-11-20T10:46:35;2.40;80.30
13458;DHT22;6801;53.018;11.560;2022-11-20T10:49:10;2.40;80.20
13458;DHT22;6801;53.018;11.560;2022-11-20T10:51:47;2.40;80.30
13458;DHT22;6801;53.018;11.560;2022-11-20T10:54:24;2.40;80.30
13458;DHT22;6801;53.018;11.560;2022-11-20T10:56:58;2.40;80.40
13458;DHT22;6801;53.018;11.560;2022-11-20T10:59:41;2.40;80.40
13458;DHT22;6801;53.018;11.560;2022-11-20T11:02:21;2.40;80.40
13458;DHT22;6801;53.018;11.560;2022-11-20T11:04:50;2.50;80.40
13458;DHT22;6801;53.018;11.560;2022-11-20T11:07:21;2.50;80.30
13458;DHT22;6801;53.018;11.560;2022-11-20T11:09:52;2.50;80.30
13458;DHT22;6801;53.018;11.560;2022-11-20T11:12:21;2.50;80.30
13458;DHT22;6801;53.018;11.560;2022-11-20T11:14:50;2.50;80.40
13458;DHT22;6801;53.018;11.560;2022-11-20T11:17:22;2.50;80.40
13458;DHT22;6801;53.018;11.560;2022-11-20T11:20:04;2.50;80.50
13458;DHT22;6801;53.018;11.560;2022-11-20T11:22:33;2.50;80.40
13458;DHT22;6801;53.018;11.560;2022-11-20T11:25:01;2.50;80.40
13458;DHT22;6801;53.018;11.560;2022-11-20T11:27:29;2.50;80.40
13458;DHT22;6801;53.018;11.560;2022-11-20T11:30:17;2.50;80.40
13458;DHT22;6801;53.018;11.560;2022-11-20T11:32:46;2.60;80.40
13458;DHT22;6801;53.018;11.560;2022-11-20T11:35:23;2.60;80.70
13458;DHT22;6801;53.018;11.560;2022-11-20T11:37:51;2.60;80.60
13458;DHT22;6801;53.018;11.560;2022-11-20T11:40:21;2.70;80.60
13458;DHT22;6801;53.018;11.560;2022-11-20T11:42:54;2.70;80.60
13458;DHT22;6801;53.018;11.560;2022-11-20T11:45:21;2.80;80.60
13458;DHT22;6801;53.018;11.560;2022-11-20T11:47:50;2.80;80.50
13458;DHT22;6801;53.018;11.560;2022-11-20T11:50:21;2.90;80.50
13458;DHT22;6801;53.018;11.560;2022-11-20T11:52:51;2.90;80.50
13458;DHT22;6801;53.018;11.560;2022-11-20T11:55:27;2.90;80.20
13458;DHT22;6801;53.018;11.560;2022-11-20T11:58:04;2.90;80.20
13458;DHT22;6801;53.018;11.560;2022-11-20T12:00:35;2.90;80.10
13458;DHT22;6801;53.018;11.560;2022-11-20T12:03:18;2.90;80.10
13458;DHT22;6801;53.018;11.560;2022-11-20T12:05:49;2.90;80.10
13458;DHT22;6801;53.018;11.560;2022-11-20T12:08:23;2.90;80.00
13458;DHT22;6801;53.018;11.560;2022-11-20T12:10:56;3.00;79.70
13458;DHT22;6801;53.018;11.560;2022-11-20T12:13:39;3.00;79.90
13458;DHT22;6801;53.018;11.560;2022-11-20T12:16:12;3.00;79.90
13458;DHT22;6801;53.018;11.560;2022-11-20T12:18:42;3.00;79.70
13458;DHT22;6801;53.018;11.560;2022-11-20T12:21:18;3.00;79.80
13458;DHT22;6801;53.018;11.560;2022-11-20T12:23:59;3.10;79.80
13458;DHT22;6801;53.018;11.560;2022-11-20T12:26:40;3.10;79.80
13458;DHT22;6801;53.018;11.560;2022-11-20T12:29:22;3.10;79.80
13458;DHT22;6801;53.018;11.560;2022-11-20T12:32:06;3.10;79.70
13458;DHT22;6801;53.018;11.560;2022-11-20T12:34:51;3.10;79.80
13458;DHT22;6801;53.018;11.560;2022-11-20T12:37:33;3.10;79.90
13458;DHT22;6801;53.018;11.560;2022-11-20T12:40:13;3.10;79.90
13458;DHT22;6801;53.018;11.560;2022-11-20T12:42:54;3.10;79.70
13458;DHT22;6801;53.018;11.560;2022-11-20T12:46:03;3.10;79.70
13458;DHT22;6801;53.018;11.560;2022-11-20T12:48:47;3.20;79.70
13458;DHT22;6801;53.018;11.560;2022-11-20T12:51:40;3.10;79.70
13458;DHT22;6801;53.018;11.560;2022-11-20T12:54:41;3.10;79.70
13458;DHT22;6801;53.018;11.560;2022-11-20T12:57:15;3.10;79.60
13458;DHT22;6801;53.018;11.560;2022-11-20T13:00:08;3.20;79.50
13458;DHT22;6801;53.018;11.560;2022-11-20T13:03:03;3.10;79.40
13458;DHT22;6801;53.018;11.560;2022-11-20T13:05:39;3.10;79.40
13458;DHT22;6801;53.018;11.560;2022-11-20T13:08:18;3.10;79.50
13458;DHT22;6801;53.018;11.560;2022-11-20T13:10:50;3.10;79.50
13458;DHT22;6801;53.018;11.560;2022-11-20T13:13:23;3.10;79.60
13458;DHT22;6801;53.018;11.560;2022-11-20T13:15:56;3.10;79.60
13458;DHT22;6801;53.018;11.560;2022-11-20T13:18:25;3.10;79.50
13458;DHT22;6801;53.018;11.560;2022-11-20T13:20:52;3.10;79.50
13458;DHT22;6801;53.018;11.560;2022-11-20T13:23:25;3.10;79.50
13458;DHT22;6801;53.018;11.560;2022-11-20T13:26:04;3.20;79.50
13458;DHT22;6801;53.018;11.560;2022-11-20T13:28:32;3.20;79.40
13458;DHT22;6801;53.018;11.560;2022-11-20T13:30:59;3.20;79.30
13458;DHT22;6801;53.018;11.560;2022-11-20T13:33:29;3.20;79.30
13458;DHT22;6801;53.018;11.560;2022-11-20T13:35:59;3.20;79.40
13458;DHT22;6801;53.018;11.560;2022-11-20T13:38:39;3.20;79.50
13458;DHT22;6801;53.018;11.560;2022-11-20T13:41:08;3.20;79.40
13458;DHT22;6801;53.018;11.560;2022-11-20T13:43:49;3.20;79.50
13458;DHT22;6801;53.018;11.560;2022-11-20T13:46:16;3.20;79.40
13458;DHT22;6801;53.018;11.560;2022-11-20T13:48:50;3.10;79.40
13458;DHT22;6801;53.018;11.560;2022-11-20T13:51:29;3.10;79.50
13458;DHT22;6801;53.018;11.560;2022-11-20T13:54:46;3.20;79.50
13458;DHT22;6801;53.018;11.560;2022-11-20T13:57:39;3.20;79.40
13458;DHT22;6801;53.018;11.560;2022-11-20T14:00:12;3.20;79.40
13458;DHT22;6801;53.018;11.560;2022-11-20T14:02:40;3.20;79.30
13458;DHT22;6801;53.018;11.560;2022-11-20T14:05:18;3.20;79.40
13458;DHT22;6801;53.018;11.560;2022-11-20T14:07:47;3.10;79.40
13458;DHT22;6801;53.018;11.560;2022-11-20T14:10:24;3.10;79.40
13458;DHT22;6801;53.018;11.560;2022-11-20T14:12:51;3.10;79.40
13458;DHT22;6801;53.018;11.560;2022-11-20T14:15:26;3.10;79.40
13458;DHT22;6801;53.018;11.560;2022-11-20T14:17:53;3.10;79.40
13458;DHT22;6801;53.018;11.560;2022-11-20T14:20:24;3.10;79.40
13458;DHT22;6801;53.018;11.560;2022-11-20T14:22:54;3.10;79.40
13458;DHT22;6801;53.018;11.560;2022-11-20T14:25:24;3.10;79.40
13458;DHT22;6801;53.018;11.560;2022-11-20T14:27:54;3.10;79.40
13458;DHT22;6801;53.018;11.560;2022-11-20T14:30:22;3.10;79.40
13458;DHT22;6801;53.018;11.560;2022-11-20T14:32:51;3.10;79.40
13458;DHT22;6801;53.018;11.560;2022-11-20T14:35:23;3.10;79.40
13458;DHT22;6801;53.018;11.560;2022-11-20T14:37:51;3.10;79.30
13458;DHT22;6801;53.018;11.560;2022-11-20T14:40:26;3.10;79.30
13458;DHT22;6801;53.018;11.560;2022-11-20T14:42:53;3.10;79.30
13458;DHT22;6801;53.018;11.560;2022-11-20T14:45:21;3.10;79.30
13458;DHT22;6801;53.018;11.560;2022-11-20T14:47:49;3.10;79.40
13458;DHT22;6801;53.018;11.560;2022-11-20T14:50:19;3.10;79.40
13458;DHT22;6801;53.018;11.560;2022-11-20T14:52:51;3.10;79.40
13458;DHT22;6801;53.018;11.560;2022-11-20T14:55:31;3.10;79.30
13458;DHT22;6801;53.018;11.560;2022-11-20T14:58:00;3.10;79.30
13458;DHT22;6801;53.018;11.560;2022-11-20T15:00:28;3.00;79.30
13458;DHT22;6801;53.018;11.560;2022-11-20T15:02:55;3.10;79.30
13458;DHT22;6801;53.018;11.560;2022-11-20T15:05:25;3.10;79.30
13458;DHT22;6801;53.018;11.560;2022-11-20T15:08:05;3.00;79.30
13458;DHT22;6801;53.018;11.560;2022-11-20T15:10:34;3.00;79.40
13458;DHT22;6801;53.018;11.560;2022-11-20T15:13:04;3.00;79.40
13458;DHT22;6801;53.018;11.560;2022-11-20T15:15:35;3.10;79.40
13458;DHT22;6801;53.018;11.560;2022-11-20T15:18:03;3.00;79.40
13458;DHT22;6801;53.018;11.560;2022-11-20T15:20:32;3.00;79.30
13458;DHT22;6801;53.018;11.560;2022-11-20T15:22:59;3.00;79.30
13458;DHT22;6801;53.018;11.560;2022-11-20T15:25:26;3.00;79.30
13458;DHT22;6801;53.018;11.560;2022-11-20T15:27:56;3.00;79.30
13458;DHT22;6801;53.018;11.560;2022-11-20T15:30:23;3.00;79.30
13458;DHT22;6801;53.018;11.560;2022-11-20T15:32:50;3.00;79.30
13458;DHT22;6801;53.018;11.560;2022-11-20T15:35:17;3.00;79.30
13458;DHT22;6801;53.018;11.560;2022-11-20T15:37:44;3.00;79.30
13458;DHT22;6801;53.018;11.560;2022-11-20T15:40:12;3.00;79.20
13458;DHT22;6801;53.018;11.560;2022-11-20T15:42:39;3.00;79.20
13458;DHT22;6801;53.018;11.560;2022-11-20T15:45:30;3.00;78.90
13458;DHT22;6801;53.018;11.560;2022-11-20T15:47:57;3.00;78.90
13458;DHT22;6801;53.018;11.560;2022-11-20T15:50:29;2.90;78.80
13458;DHT22;6801;53.018;11.560;2022-11-20T15:52:56;2.90;78.80
13458;DHT22;6801;53.018;11.560;2022-11-20T15:55:24;2.90;78.70
13458;DHT22;6801;53.018;11.560;2022-11-20T15:57:51;2.90;78.70
13458;DHT22;6801;53.018;11.560;2022-11-20T16:00:18;2.80;78.80
13458;DHT22;6801;53.018;11.560;2022-11-20T16:02:47;2.80;78.80
13458;DHT22;6801;53.018;11.560;2022-11-20T16:05:15;2.80;78.70
13458;DHT22;6801;53.018;11.560;2022-11-20T16:07:43;2.80;78.80